Time;durP1;ratioP1;P1;durP2;ratioP2;P2;SDS_P1;SDS_P2;PMS_P1;PMS_P2;Temp;Humidity;BMP_temperature;BMP_pressure;BME280_temperature;BME280_humidity;BME280_pressure;Samples;Min_cycle;Max_cycle;Signal;HPM_P1;HPM_P2
2021/01/23 00:00:01;;;;;;;2.47;1.60;;;23.10;30.30;;;;;;5069749;28;20386;-72
2021/01/23 00:02:26;;;;;;;2.40;1.47;;;23.10;30.40;;;;;;5070197;28;20412;-71
2021/01/23 00:04:52;;;;;;;1.90;1.52;;;23.10;30.40;;;;;;5070590;28;20414;-70
2021/01/23 00:07:17;;;;;;;2.43;1.60;;;23.10;30.30;;;;;;5070864;28;20813;-72
2021/01/23 00:09:43;;;;;;;2.15;1.58;;;23.10;30.30;;;;;;5070276;28;20396;-71
2021/01/23 00:12:09;;;;;;;2.00;1.60;;;23.10;30.30;;;;;;5073559;28;20500;-72
2021/01/23 00:14:34;;;;;;;2.33;1.50;;;23.10;30.30;;;;;;5073307;28;20392;-71
2021/01/23 00:17:00;;;;;;;2.30;1.47;;;23.10;30.30;;;;;;5072897;28;20388;-71
2021/01/23 00:19:26;;;;;;;1.73;1.30;;;23.10;30.30;;;;;;5072972;28;20411;-71
2021/01/23 00:21:52;;;;;;;1.90;1.40;;;23.10;30.20;;;;;;5074518;28;20384;-72
2021/01/23 00:24:17;;;;;;;2.30;1.58;;;23.00;30.30;;;;;;5074427;28;20502;-71
2021/01/23 00:26:44;;;;;;;1.90;1.20;;;23.00;30.30;;;;;;5074046;28;20384;-71
2021/01/23 00:29:15;;;;;;;2.45;1.33;;;22.90;30.70;;;;;;5074134;28;20880;-72
2021/01/23 00:31:41;;;;;;;1.90;1.30;;;23.00;30.40;;;;;;5074360;28;20390;-72
2021/01/23 00:34:09;;;;;;;1.90;1.15;;;22.90;30.20;;;;;;5074094;28;20492;-72
2021/01/23 00:36:35;;;;;;;1.90;1.30;;;22.90;30.40;;;;;;5074229;28;20496;-71
2021/01/23 00:39:00;;;;;;;1.90;1.38;;;22.80;30.20;;;;;;5073500;28;20890;-72
2021/01/23 00:41:26;;;;;;;1.70;1.27;;;22.90;30.20;;;;;;5073500;28;20425;-72
2021/01/23 00:43:53;;;;;;;1.80;1.30;;;22.80;30.20;;;;;;5073570;28;20496;-60
2021/01/23 00:46:20;;;;;;;1.80;1.25;;;22.90;30.20;;;;;;5073573;28;20528;-72
2021/01/23 00:48:45;;;;;;;1.70;1.10;;;22.90;30.10;;;;;;5073357;28;20889;-72
2021/01/23 00:51:11;;;;;;;2.28;1.27;;;22.90;30.10;;;;;;5071811;28;20427;-71
2021/01/23 00:53:37;;;;;;;2.10;1.20;;;22.90;30.10;;;;;;5073549;28;20875;-59
2021/01/23 00:56:03;;;;;;;1.70;1.30;;;22.80;30.10;;;;;;5073265;28;20388;-72
2021/01/23 00:58:28;;;;;;;1.73;1.20;;;22.80;30.10;;;;;;5073394;28;20387;-67
2021/01/23 01:00:54;;;;;;;1.83;1.20;;;22.80;30.00;;;;;;5072881;28;20388;-70
2021/01/23 01:03:20;;;;;;;1.70;1.20;;;22.80;30.00;;;;;;5073386;28;20406;-71
2021/01/23 01:05:45;;;;;;;2.07;1.30;;;22.80;30.00;;;;;;5073503;28;20482;-68
2021/01/23 01:08:11;;;;;;;1.73;1.15;;;22.80;30.00;;;;;;5073140;28;20467;-72
2021/01/23 01:10:37;;;;;;;2.07;1.30;;;22.80;30.00;;;;;;5073571;28;20396;-72
2021/01/23 01:13:02;;;;;;;1.77;1.30;;;22.80;30.00;;;;;;5073115;28;20454;-71
2021/01/23 01:15:28;;;;;;;1.90;1.20;;;22.80;30.00;;;;;;5089084;28;20395;-72
2021/01/23 01:17:53;;;;;;;1.70;1.20;;;22.80;30.00;;;;;;5073462;28;20796;-72
2021/01/23 01:20:19;;;;;;;1.30;1.00;;;22.80;30.00;;;;;;5073381;28;20868;-71
2021/01/23 01:22:45;;;;;;;1.45;1.10;;;22.80;30.00;;;;;;5072069;28;20934;-60
2021/01/23 01:25:10;;;;;;;1.50;1.20;;;22.80;30.00;;;;;;5073150;28;20525;-71
2021/01/23 01:27:36;;;;;;;1.50;1.10;;;22.80;30.00;;;;;;5073265;28;20407;-72
2021/01/23 01:30:03;;;;;;;1.37;1.10;;;22.80;30.00;;;;;;5073165;28;20402;-69
2021/01/23 01:32:29;;;;;;;1.42;1.02;;;22.80;30.00;;;;;;5073143;28;20395;-61
2021/01/23 01:34:55;;;;;;;1.40;1.10;;;22.80;30.00;;;;;;5071231;28;20404;-71
2021/01/23 01:37:20;;;;;;;1.30;1.00;;;22.80;30.00;;;;;;5073205;28;20860;-72
2021/01/23 01:39:46;;;;;;;1.60;1.13;;;22.80;30.10;;;;;;5073016;28;20744;-72
2021/01/23 01:42:11;;;;;;;1.40;1.00;;;22.80;30.00;;;;;;5088510;28;21010;-71
2021/01/23 01:44:37;;;;;;;1.30;1.10;;;22.80;30.00;;;;;;5072990;28;20391;-69
2021/01/23 01:47:03;;;;;;;1.50;1.10;;;22.80;30.10;;;;;;5072429;28;20753;-72
2021/01/23 01:49:30;;;;;;;1.50;1.20;;;22.80;30.00;;;;;;5072345;28;20416;-72
2021/01/23 01:51:57;;;;;;;1.40;1.08;;;22.80;30.00;;;;;;5072512;28;20395;-70
2021/01/23 01:54:23;;;;;;;1.23;1.00;;;22.80;30.00;;;;;;5072745;28;20897;-71
2021/01/23 01:56:49;;;;;;;1.60;1.00;;;22.70;30.00;;;;;;5072469;28;20392;-72
2021/01/23 01:59:15;;;;;;;1.80;1.20;;;22.70;30.00;;;;;;5071106;28;20400;-72
2021/01/23 02:01:41;;;;;;;1.52;1.10;;;22.70;30.00;;;;;;5072686;28;20384;-72
2021/01/23 02:04:36;;;;;;;1.50;1.10;;;22.70;30.00;;;;;;5072440;28;20416;-72
2021/01/23 02:07:01;;;;;;;1.48;1.10;;;22.70;30.00;;;;;;5072019;28;20424;-72
2021/01/23 02:10:01;;;;;;;1.57;1.10;;;22.70;30.00;;;;;;5072509;28;20407;-72
2021/01/23 02:12:51;;;;;;;1.77;1.10;;;22.70;30.00;;;;;;5072473;28;20380;-72
2021/01/23 02:15:23;;;;;;;1.50;1.07;;;22.70;30.00;;;;;;5072094;28;20481;-72
2021/01/23 02:17:54;;;;;;;1.98;1.00;;;22.70;30.00;;;;;;5072301;28;20411;-72
2021/01/23 02:20:37;;;;;;;1.45;1.05;;;22.70;30.00;;;;;;5072260;28;20399;-72
2021/01/23 02:23:13;;;;;;;2.03;1.10;;;22.70;30.00;;;;;;5071187;28;20764;-69
2021/01/23 02:26:09;;;;;;;1.77;1.30;;;22.70;30.00;;;;;;5071866;28;20475;-72
2021/01/23 02:28:42;;;;;;;1.90;1.20;;;22.70;30.00;;;;;;5072071;28;20384;-72
2021/01/23 02:31:16;;;;;;;1.40;1.10;;;22.70;30.00;;;;;;5071642;28;20383;-72
2021/01/23 02:33:47;;;;;;;1.35;1.15;;;22.70;30.50;;;;;;5071458;28;20407;-72
2021/01/23 02:36:14;;;;;;;1.70;1.10;;;22.70;30.00;;;;;;5070736;28;20391;-71
2021/01/23 02:38:41;;;;;;;1.70;1.20;;;22.70;30.00;;;;;;5087389;28;20899;-71
2021/01/23 02:41:08;;;;;;;1.90;1.27;;;22.60;30.00;;;;;;5071490;28;20391;-72
2021/01/23 02:43:42;;;;;;;1.40;1.15;;;22.60;30.00;;;;;;5071756;28;20412;-71
2021/01/23 02:46:12;;;;;;;1.50;1.20;;;22.60;30.00;;;;;;5071892;28;20855;-71
2021/01/23 02:48:39;;;;;;;1.80;1.30;;;22.60;30.00;;;;;;5071820;28;20387;-71
2021/01/23 02:51:23;;;;;;;1.98;1.30;;;22.60;30.00;;;;;;5071050;28;20383;-72
2021/01/23 02:53:52;;;;;;;2.13;1.50;;;22.60;30.00;;;;;;5071630;28;20470;-71
2021/01/23 02:56:24;;;;;;;1.63;1.30;;;22.60;30.00;;;;;;5071639;28;20380;-72
2021/01/23 02:58:52;;;;;;;2.08;1.30;;;22.60;30.00;;;;;;5071357;28;20384;-70
2021/01/23 03:01:23;;;;;;;1.75;1.20;;;22.60;30.00;;;;;;5071536;28;20388;-72
2021/01/23 03:03:53;;;;;;;2.00;1.40;;;22.60;30.00;;;;;;5071484;28;20768;-72
2021/01/23 03:06:19;;;;;;;1.90;1.40;;;22.60;30.00;;;;;;5071952;28;20449;-72
2021/01/23 03:08:46;;;;;;;1.73;1.30;;;22.60;30.00;;;;;;5087201;28;20491;-72
2021/01/23 03:11:11;;;;;;;1.60;1.30;;;22.50;30.00;;;;;;5071074;28;20384;-72
2021/01/23 03:13:37;;;;;;;2.08;1.40;;;22.50;30.00;;;;;;5071467;28;20391;-71
2021/01/23 03:16:04;;;;;;;1.80;1.25;;;22.50;30.00;;;;;;5071365;28;20380;-72
2021/01/23 03:18:29;;;;;;;1.40;1.23;;;22.50;30.00;;;;;;5071476;28;20431;-72
2021/01/23 03:20:55;;;;;;;1.70;1.37;;;22.50;30.00;;;;;;5071279;28;20423;-72
2021/01/23 03:23:20;;;;;;;1.90;1.33;;;22.50;30.00;;;;;;5071330;28;20418;-72
2021/01/23 03:25:46;;;;;;;1.80;1.50;;;22.50;30.00;;;;;;5086959;28;20813;-72
2021/01/23 03:28:12;;;;;;;1.90;1.40;;;22.50;30.00;;;;;;5071632;28;20383;-72
2021/01/23 03:30:38;;;;;;;1.90;1.40;;;22.50;30.00;;;;;;5071317;28;20388;-71
2021/01/23 03:33:04;;;;;;;2.00;1.40;;;22.50;30.00;;;;;;5070759;28;20727;-72
2021/01/23 03:35:29;;;;;;;1.70;1.30;;;22.50;30.00;;;;;;5071125;28;20410;-72
2021/01/23 03:37:55;;;;;;;1.57;1.20;;;22.50;30.00;;;;;;5070856;28;20391;-72
2021/01/23 03:40:21;;;;;;;1.50;1.20;;;22.50;30.00;;;;;;5086275;28;20429;-72
2021/01/23 03:42:47;;;;;;;1.40;1.20;;;22.50;30.00;;;;;;5069747;28;20415;-72
2021/01/23 03:45:13;;;;;;;1.80;1.30;;;22.50;30.00;;;;;;5070492;28;20411;-71
2021/01/23 03:47:39;;;;;;;1.40;1.10;;;22.50;30.00;;;;;;5073773;28;20394;-71
2021/01/23 03:50:09;;;;;;;1.50;1.20;;;22.40;30.00;;;;;;5075170;28;20388;-72
2021/01/23 03:52:36;;;;;;;1.48;1.20;;;22.50;30.00;;;;;;5074968;28;20826;-71
2021/01/23 03:55:02;;;;;;;1.73;1.25;;;22.40;30.00;;;;;;5074437;28;20371;-71
2021/01/23 03:57:27;;;;;;;1.30;1.10;;;22.40;30.00;;;;;;5074932;28;20906;-72
2021/01/23 03:59:53;;;;;;;1.43;1.00;;;22.40;30.00;;;;;;5074896;28;20379;-72
2021/01/23 04:02:19;;;;;;;1.73;1.20;;;22.40;30.00;;;;;;5074791;28;20831;-72
2021/01/23 04:04:44;;;;;;;1.37;1.10;;;22.40;30.00;;;;;;5090453;28;20399;-71
2021/01/23 04:07:10;;;;;;;1.40;1.10;;;22.40;30.00;;;;;;5074309;28;20391;-72
2021/01/23 04:09:36;;;;;;;1.50;1.10;;;22.40;30.00;;;;;;5074786;28;20395;-71
2021/01/23 04:12:02;;;;;;;1.45;1.08;;;22.40;30.00;;;;;;5090365;28;20395;-71
2021/01/23 04:14:27;;;;;;;1.30;0.80;;;22.40;30.00;;;;;;5074785;28;20418;-72
2021/01/23 04:16:53;;;;;;;1.20;0.90;;;22.40;30.00;;;;;;5074375;28;20473;-71
2021/01/23 04:19:19;;;;;;;1.30;1.10;;;22.40;30.00;;;;;;5074204;28;20427;-72
2021/01/23 04:21:44;;;;;;;1.20;0.98;;;22.40;30.00;;;;;;5074484;28;20429;-72
2021/01/23 04:24:10;;;;;;;1.30;1.00;;;22.40;30.00;;;;;;5074481;28;20412;-72
2021/01/23 04:26:39;;;;;;;1.27;0.90;;;22.30;30.00;;;;;;5074497;28;20485;-72
2021/01/23 04:29:05;;;;;;;1.52;1.08;;;22.40;30.00;;;;;;5073915;28;20431;-72
2021/01/23 04:31:30;;;;;;;1.30;0.88;;;22.30;30.00;;;;;;5074406;28;20428;-70
2021/01/23 04:33:56;;;;;;;1.27;0.93;;;22.30;30.00;;;;;;5074166;28;20502;-72
2021/01/23 04:36:22;;;;;;;1.20;0.90;;;22.30;30.00;;;;;;5074329;28;20416;-72
2021/01/23 04:38:48;;;;;;;1.20;0.80;;;22.30;30.00;;;;;;5074300;28;20441;-72
2021/01/23 04:41:13;;;;;;;1.40;0.90;;;22.30;30.00;;;;;;5073769;28;20782;-71
2021/01/23 04:43:39;;;;;;;1.20;0.90;;;22.30;30.00;;;;;;5074049;28;20494;-72
2021/01/23 04:46:05;;;;;;;1.13;0.83;;;22.30;30.00;;;;;;5074176;28;20406;-72
2021/01/23 04:48:31;;;;;;;1.23;0.93;;;22.30;30.00;;;;;;5074107;28;20396;-72
2021/01/23 04:50:57;;;;;;;0.98;0.70;;;22.30;30.00;;;;;;5073832;28;20457;-72
2021/01/23 04:53:23;;;;;;;1.30;1.00;;;22.30;30.00;;;;;;5073529;28;20428;-72
2021/01/23 04:55:48;;;;;;;1.30;1.00;;;22.30;30.00;;;;;;5073143;28;20384;-72
2021/01/23 04:58:14;;;;;;;1.30;0.90;;;22.30;30.00;;;;;;5073865;28;20391;-60
2021/01/23 05:00:39;;;;;;;1.50;0.80;;;22.30;30.00;;;;;;5072432;28;20380;-59
2021/01/23 05:03:06;;;;;;;1.10;0.80;;;22.30;29.90;;;;;;5073317;28;20395;-72
2021/01/23 05:05:33;;;;;;;1.65;0.80;;;22.20;30.00;;;;;;5073731;28;20888;-71
2021/01/23 05:08:10;;;;;;;1.20;0.80;;;22.30;29.90;;;;;;5073764;28;20859;-71
2021/01/23 05:10:36;;;;;;;1.13;0.90;;;22.20;29.90;;;;;;5073645;28;20392;-69
2021/01/23 05:13:19;;;;;;;1.10;0.70;;;22.20;29.90;;;;;;5073188;28;20421;-72
2021/01/23 05:15:46;;;;;;;0.80;0.65;;;22.20;30.00;;;;;;5072235;28;20384;-72
2021/01/23 05:18:13;;;;;;;0.90;0.70;;;22.20;29.90;;;;;;5073703;28;20388;-72
2021/01/23 05:20:46;;;;;;;0.95;0.80;;;22.20;30.00;;;;;;5073419;28;20388;-71
2021/01/23 05:23:16;;;;;;;1.00;0.70;;;22.20;30.00;;;;;;5072907;28;20404;-72
2021/01/23 05:25:43;;;;;;;0.95;0.60;;;22.20;30.00;;;;;;5073460;28;20391;-72
2021/01/23 05:28:12;;;;;;;0.82;0.70;;;22.20;30.00;;;;;;5073673;28;20398;-71
2021/01/23 05:30:52;;;;;;;0.90;0.70;;;22.20;30.00;;;;;;5073267;28;20772;-72
2021/01/23 05:33:19;;;;;;;0.90;0.60;;;22.20;30.00;;;;;;5072683;28;20418;-72
2021/01/23 05:35:59;;;;;;;1.00;0.70;;;22.20;30.00;;;;;;5073095;28;20398;-71
2021/01/23 05:38:30;;;;;;;1.00;0.70;;;22.20;30.00;;;;;;5073220;28;20395;-72
2021/01/23 05:41:05;;;;;;;0.75;0.55;;;22.20;29.90;;;;;;5073065;28;20396;-72
2021/01/23 05:43:34;;;;;;;1.05;0.60;;;22.20;29.90;;;;;;5073119;28;20416;-72
2021/01/23 05:46:03;;;;;;;0.82;0.60;;;22.20;30.00;;;;;;5072946;28;20449;-71
2021/01/23 05:48:28;;;;;;;0.90;0.63;;;22.20;30.00;;;;;;5073081;28;20384;-72
2021/01/23 05:50:54;;;;;;;0.88;0.50;;;22.20;29.90;;;;;;5072756;28;20398;-72
2021/01/23 05:53:20;;;;;;;0.70;0.60;;;22.20;30.00;;;;;;5072361;28;20744;-72
2021/01/23 05:55:45;;;;;;;0.77;0.50;;;22.10;29.90;;;;;;5072627;28;20740;-70
2021/01/23 05:58:11;;;;;;;0.70;0.50;;;22.10;29.90;;;;;;5072766;28;20437;-73
2021/01/23 06:00:38;;;;;;;0.85;0.50;;;22.10;29.90;;;;;;5072662;28;20483;-72
2021/01/23 06:03:04;;;;;;;1.00;0.60;;;22.10;29.90;;;;;;5071938;28;20406;-71
2021/01/23 06:05:30;;;;;;;0.63;0.50;;;22.10;29.90;;;;;;5072577;28;20791;-72
2021/01/23 06:07:56;;;;;;;0.77;0.50;;;22.10;29.80;;;;;;5071944;28;20387;-70
2021/01/23 06:10:21;;;;;;;0.65;0.50;;;22.10;29.80;;;;;;5072002;28;20415;-72
2021/01/23 06:12:48;;;;;;;0.60;0.43;;;22.10;29.80;;;;;;5072069;28;20395;-71
2021/01/23 06:15:32;;;;;;;0.60;0.40;;;22.10;29.80;;;;;;5071918;28;20394;-71
2021/01/23 06:18:04;;;;;;;0.50;0.40;;;22.10;29.80;;;;;;5072326;28;20426;-72
2021/01/23 06:20:42;;;;;;;0.65;0.40;;;22.10;29.80;;;;;;5072332;28;20390;-72
2021/01/23 06:23:07;;;;;;;0.63;0.50;;;22.10;29.80;;;;;;5071702;28;20491;-71
2021/01/23 06:25:51;;;;;;;0.50;0.40;;;22.10;29.80;;;;;;5072243;28;20478;-71
2021/01/23 06:28:26;;;;;;;0.60;0.50;;;22.10;29.80;;;;;;5072165;28;20419;-72
2021/01/23 06:30:52;;;;;;;0.70;0.50;;;22.10;29.80;;;;;;5072095;28;20388;-71
2021/01/23 06:33:24;;;;;;;0.50;0.30;;;22.10;29.80;;;;;;5071545;28;20463;-72
2021/01/23 06:36:02;;;;;;;0.70;0.50;;;22.10;29.90;;;;;;5072141;28;20402;-72
2021/01/23 06:38:28;;;;;;;0.60;0.40;;;22.00;29.80;;;;;;5072097;28;20375;-71
2021/01/23 06:40:54;;;;;;;0.50;0.40;;;22.00;29.80;;;;;;5071921;28;20478;-72
2021/01/23 06:43:20;;;;;;;0.45;0.30;;;22.10;29.80;;;;;;5071327;28;20833;-72
2021/01/23 06:45:45;;;;;;;0.60;0.40;;;22.00;29.80;;;;;;5071817;28;20384;-71
2021/01/23 06:48:11;;;;;;;0.55;0.40;;;22.00;29.80;;;;;;5071869;28;20396;-73
2021/01/23 06:50:39;;;;;;;0.50;0.40;;;22.00;29.80;;;;;;5071816;28;20380;-71
2021/01/23 06:53:18;;;;;;;0.60;0.40;;;22.00;29.80;;;;;;5071359;28;20442;-64
2021/01/23 06:55:47;;;;;;;0.40;0.30;;;22.00;29.80;;;;;;5071416;28;20402;-71
2021/01/23 06:58:16;;;;;;;0.40;0.30;;;22.00;29.80;;;;;;5071931;28;20384;-73
2021/01/23 07:00:42;;;;;;;0.50;0.30;;;22.00;29.80;;;;;;5071693;28;20655;-71
2021/01/23 07:03:13;;;;;;;0.50;0.40;;;22.00;29.80;;;;;;5086743;28;20416;-72
2021/01/23 07:05:50;;;;;;;0.50;0.30;;;22.00;29.80;;;;;;5087181;28;20471;-71
2021/01/23 07:08:23;;;;;;;0.52;0.40;;;22.00;29.80;;;;;;5071667;28;20380;-72
2021/01/23 07:11:07;;;;;;;0.55;0.40;;;22.00;29.70;;;;;;5071511;28;20383;-72
2021/01/23 07:13:34;;;;;;;0.50;0.32;;;22.00;29.80;;;;;;5071522;28;20398;-71
2021/01/23 07:15:59;;;;;;;0.40;0.30;;;22.00;29.70;;;;;;5071569;28;20467;-72
2021/01/23 07:18:26;;;;;;;0.40;0.30;;;21.90;29.70;;;;;;5071586;28;20411;-72
2021/01/23 07:20:53;;;;;;;0.88;0.32;;;21.90;29.70;;;;;;5070250;28;20395;-71
2021/01/23 07:23:19;;;;;;;0.43;0.30;;;21.80;29.80;;;;;;5071013;28;20737;-68
2021/01/23 07:25:45;;;;;;;0.90;0.30;;;21.80;30.20;;;;;;5070895;28;20799;-71
2021/01/23 07:28:11;;;;;;;2.30;0.30;;;21.90;30.10;;;;;;5070960;28;20408;-71
2021/01/23 07:30:37;;;;;;;0.70;0.30;;;21.80;30.00;;;;;;5071268;28;20479;-72
2021/01/23 07:33:03;;;;;;;1.20;0.20;;;21.80;30.20;;;;;;5071057;28;20860;-70
2021/01/23 07:35:36;;;;;;;1.00;0.20;;;21.80;30.00;;;;;;5070910;28;20465;-70
2021/01/23 07:38:03;;;;;;;0.87;0.27;;;21.70;30.00;;;;;;5070094;28;20448;-59
2021/01/23 07:40:32;;;;;;;0.68;0.30;;;21.60;30.20;;;;;;5071261;28;20402;-59
2021/01/23 07:42:59;;;;;;;0.60;0.30;;;21.60;30.20;;;;;;5071077;28;20418;-70
2021/01/23 07:45:25;;;;;;;0.93;0.30;;;21.50;30.30;;;;;;5070871;28;20894;-70
2021/01/23 07:48:02;;;;;;;1.50;0.30;;;21.50;30.50;;;;;;5071162;28;20403;-71
2021/01/23 07:50:37;;;;;;;0.70;0.20;;;21.50;30.70;;;;;;5071356;28;20463;-70
2021/01/23 07:53:20;;;;;;;1.50;0.25;;;21.50;30.70;;;;;;5070920;28;20445;-70
2021/01/23 07:55:50;;;;;;;1.77;0.40;;;21.50;30.70;;;;;;5063088;28;21122;-71
2021/01/23 07:58:17;;;;;;;1.37;0.27;;;21.40;31.00;;;;;;5061730;28;20380;-69
2021/01/23 08:00:43;;;;;;;0.80;0.30;;;21.40;31.10;;;;;;5070159;28;20400;-63
2021/01/23 08:03:09;;;;;;;0.60;0.20;;;21.50;31.20;;;;;;5070024;28;20415;-68
2021/01/23 08:05:52;;;;;;;3.47;0.50;;;21.50;31.60;;;;;;5070628;28;20470;-69
2021/01/23 08:08:37;;;;;;;2.00;0.30;;;21.50;31.50;;;;;;5070783;28;20396;-71
2021/01/23 08:11:05;;;;;;;0.85;0.40;;;21.40;31.50;;;;;;5070603;28;20448;-60
2021/01/23 08:13:34;;;;;;;1.95;0.50;;;21.50;31.60;;;;;;5070656;28;20430;-70
2021/01/23 08:16:16;;;;;;;1.77;0.47;;;21.40;31.60;;;;;;5071100;28;20740;-69
2021/01/23 08:18:43;;;;;;;3.72;0.50;;;21.40;31.60;;;;;;5070887;28;20438;-70
2021/01/23 08:21:17;;;;;;;1.83;0.32;;;21.40;31.70;;;;;;5070400;28;20413;-63
2021/01/23 08:23:43;;;;;;;2.25;0.40;;;21.40;32.00;;;;;;5070707;28;20411;-70
2021/01/23 08:26:09;;;;;;;2.10;0.40;;;21.40;31.90;;;;;;5070905;28;20379;-71
2021/01/23 08:28:39;;;;;;;3.93;0.57;;;21.40;32.00;;;;;;5070903;28;20407;-70
2021/01/23 08:31:24;;;;;;;3.40;0.67;;;21.40;32.20;;;;;;5071201;28;20396;-69
2021/01/23 08:33:54;;;;;;;3.03;0.50;;;21.40;32.30;;;;;;5074100;28;20403;-71
2021/01/23 08:36:20;;;;;;;3.90;0.63;;;21.40;32.40;;;;;;5074433;28;20967;-70
2021/01/23 08:38:46;;;;;;;4.07;0.70;;;21.40;32.50;;;;;;5074207;28;20474;-70
2021/01/23 08:41:12;;;;;;;2.30;0.40;;;21.40;32.60;;;;;;5073526;28;20433;-71
2021/01/23 08:43:38;;;;;;;4.10;0.57;;;21.40;32.80;;;;;;5073528;28;20404;-71
2021/01/23 08:46:03;;;;;;;3.10;0.50;;;21.40;32.90;;;;;;5073921;28;20391;-69
2021/01/23 08:48:29;;;;;;;3.80;0.70;;;21.40;32.60;;;;;;5074085;28;20372;-65
2021/01/23 08:50:54;;;;;;;5.07;0.47;;;21.40;32.70;;;;;;5073927;28;20733;-71
2021/01/23 08:53:20;;;;;;;6.87;0.60;;;21.30;33.30;;;;;;5073497;28;20411;-71
2021/01/23 08:55:46;;;;;;;3.53;0.40;;;21.40;33.20;;;;;;5073904;28;20490;-70
2021/01/23 08:58:12;;;;;;;4.60;0.55;;;21.40;32.80;;;;;;5073776;28;20747;-71
2021/01/23 09:00:38;;;;;;;3.47;0.60;;;21.40;32.90;;;;;;5073882;28;20391;-65
2021/01/23 09:03:04;;;;;;;3.38;0.50;;;21.30;32.90;;;;;;5073619;28;20406;-70
2021/01/23 09:05:29;;;;;;;7.93;0.85;;;21.40;32.90;;;;;;5061955;28;20395;-60
2021/01/23 09:07:55;;;;;;;4.32;0.60;;;21.30;33.20;;;;;;5071830;28;20388;-68
2021/01/23 09:10:21;;;;;;;5.43;0.87;;;21.30;33.30;;;;;;5072152;28;20403;-71
2021/01/23 09:12:48;;;;;;;5.55;1.05;;;21.30;33.30;;;;;;5073358;28;20375;-72
2021/01/23 09:15:14;;;;;;;6.00;1.58;;;21.30;33.30;;;;;;5072765;28;20875;-70
2021/01/23 09:17:41;;;;;;;10.57;2.28;;;21.30;33.30;;;;;;5071735;28;20751;-72
2021/01/23 09:20:07;;;;;;;7.70;1.55;;;21.40;33.30;;;;;;5073247;28;20387;-71
2021/01/23 09:22:33;;;;;;;5.20;1.10;;;21.40;32.70;;;;;;5072794;28;20396;-69
2021/01/23 09:24:59;;;;;;;4.38;1.00;;;21.40;32.50;;;;;;5073065;28;21013;-72
2021/01/23 09:27:26;;;;;;;4.17;1.00;;;21.40;32.80;;;;;;5072581;28;20395;-71
2021/01/23 09:29:52;;;;;;;5.82;1.10;;;21.40;32.40;;;;;;5071465;28;20407;-67
2021/01/23 09:32:18;;;;;;;6.50;1.10;;;21.40;32.10;;;;;;5073155;28;20741;-58
2021/01/23 09:34:44;;;;;;;5.40;1.05;;;21.40;32.10;;;;;;5072644;28;20415;-70
2021/01/23 09:37:10;;;;;;;4.10;0.90;;;21.40;32.70;;;;;;5072640;28;20415;-71
2021/01/23 09:39:35;;;;;;;5.53;0.93;;;21.50;32.60;;;;;;5071180;28;20488;-66
2021/01/23 09:42:01;;;;;;;3.92;0.98;;;21.50;32.60;;;;;;5072463;28;20402;-72
2021/01/23 09:44:27;;;;;;;4.67;1.00;;;21.50;32.40;;;;;;5072026;28;20503;-72
2021/01/23 09:46:54;;;;;;;5.00;0.90;;;21.50;32.10;;;;;;5071337;28;20419;-66
2021/01/23 09:49:20;;;;;;;5.13;0.90;;;21.50;32.00;;;;;;5072122;28;20409;-71
2021/01/23 09:51:45;;;;;;;5.18;0.80;;;21.50;32.30;;;;;;5072432;28;20442;-69
2021/01/23 09:54:11;;;;;;;5.10;1.20;;;21.60;32.90;;;;;;5072435;28;20881;-58
2021/01/23 09:56:43;;;;;;;4.50;1.52;;;21.60;32.30;;;;;;5071127;28;20391;-59
2021/01/23 09:59:09;;;;;;;3.55;1.25;;;21.70;32.50;;;;;;5071600;28;20388;-58
2021/01/23 10:01:34;;;;;;;4.00;1.30;;;21.70;32.40;;;;;;5071829;28;20394;-58
2021/01/23 10:04:00;;;;;;;3.00;1.10;;;21.70;32.60;;;;;;5071940;28;21054;-58
2021/01/23 10:06:25;;;;;;;2.90;1.30;;;21.70;32.50;;;;;;5072235;28;20419;-58
2021/01/23 10:08:51;;;;;;;3.28;1.20;;;21.70;32.50;;;;;;5070882;28;20399;-58
2021/01/23 10:11:17;;;;;;;2.80;1.30;;;21.70;32.50;;;;;;5071541;28;20474;-58
2021/01/23 10:13:43;;;;;;;2.65;1.30;;;21.70;32.50;;;;;;5072077;28;20419;-58
2021/01/23 10:16:08;;;;;;;4.47;1.30;;;21.70;32.40;;;;;;5072107;28;20387;-58
2021/01/23 10:18:35;;;;;;;4.70;1.33;;;21.70;32.30;;;;;;5071970;28;20406;-58
2021/01/23 10:21:05;;;;;;;3.08;1.30;;;21.80;32.40;;;;;;5071870;28;20388;-59
2021/01/23 10:23:32;;;;;;;4.13;1.40;;;21.70;32.30;;;;;;5071433;28;20768;-58
2021/01/23 10:25:58;;;;;;;2.80;1.30;;;21.70;32.30;;;;;;5071936;28;20400;-58
2021/01/23 10:28:24;;;;;;;2.30;1.37;;;21.70;32.20;;;;;;5071774;28;20894;-58
2021/01/23 10:30:50;;;;;;;2.63;1.30;;;21.70;32.20;;;;;;5071711;28;20379;-58
2021/01/23 10:33:15;;;;;;;2.60;1.30;;;21.70;32.10;;;;;;5071273;28;20399;-59
2021/01/23 10:35:41;;;;;;;2.45;1.27;;;21.70;31.70;;;;;;5071509;28;20407;-58
2021/01/23 10:38:07;;;;;;;2.42;1.30;;;21.70;31.70;;;;;;5071616;28;20383;-58
2021/01/23 10:40:32;;;;;;;3.37;1.40;;;21.70;31.70;;;;;;5071580;28;20445;-59
2021/01/23 10:42:58;;;;;;;2.42;1.25;;;21.70;31.70;;;;;;5071536;28;20818;-58
2021/01/23 10:45:24;;;;;;;3.40;1.40;;;21.80;31.60;;;;;;5071007;28;20828;-59
2021/01/23 10:47:50;;;;;;;2.20;1.20;;;21.70;31.50;;;;;;5071441;28;20906;-58
2021/01/23 10:50:15;;;;;;;1.95;1.15;;;21.70;31.50;;;;;;5071638;28;20457;-58
2021/01/23 10:52:41;;;;;;;1.60;1.10;;;21.70;31.40;;;;;;5071285;28;20892;-71
2021/01/23 10:55:07;;;;;;;2.28;1.20;;;21.70;31.60;;;;;;5070131;28;20395;-62
2021/01/23 10:57:33;;;;;;;2.25;1.10;;;21.70;31.40;;;;;;5070913;28;20406;-59
2021/01/23 10:59:59;;;;;;;2.25;1.30;;;21.70;31.60;;;;;;5070953;28;20466;-59
2021/01/23 11:02:24;;;;;;;3.23;1.20;;;21.70;31.40;;;;;;5071279;28;20783;-59
2021/01/23 11:04:50;;;;;;;5.13;1.27;;;21.60;31.80;;;;;;5070958;28;20416;-58
2021/01/23 11:07:16;;;;;;;4.33;1.40;;;21.70;32.10;;;;;;5070817;28;20470;-58
2021/01/23 11:09:41;;;;;;;7.07;1.50;;;21.70;31.90;;;;;;5071160;28;20893;-58
2021/01/23 11:12:08;;;;;;;38.80;35.37;;;21.70;32.40;;;;;;5071213;28;20482;-59
2021/01/23 11:14:35;;;;;;;80.45;73.03;;;21.80;33.10;;;;;;5070819;28;20419;-59
2021/01/23 11:17:01;;;;;;;136.50;122.60;;;21.90;33.10;;;;;;5070515;28;20384;-58
2021/01/23 11:19:27;;;;;;;130.45;118.20;;;22.00;32.70;;;;;;5070509;28;20398;-61
2021/01/23 11:21:53;;;;;;;102.75;92.88;;;22.00;33.90;;;;;;5070857;28;20476;-58
2021/01/23 11:24:19;;;;;;;139.97;127.37;;;22.10;32.80;;;;;;5070875;28;20419;-58
2021/01/23 11:26:45;;;;;;;114.20;103.72;;;22.20;33.40;;;;;;5070627;28;20384;-58
2021/01/23 11:29:11;;;;;;;107.90;98.47;;;22.30;35.00;;;;;;5069196;28;20445;-59
2021/01/23 11:31:37;;;;;;;90.13;81.78;;;22.40;35.00;;;;;;5070851;28;20445;-71
2021/01/23 11:34:02;;;;;;;96.00;87.13;;;22.50;32.80;;;;;;5071079;28;20404;-72
2021/01/23 11:36:30;;;;;;;139.85;126.07;;;22.70;33.90;;;;;;5071287;28;20392;-72
2021/01/23 11:38:56;;;;;;;114.43;102.65;;;22.80;33.00;;;;;;5071407;28;20392;-73
2021/01/23 11:41:22;;;;;;;131.48;118.80;;;22.90;34.50;;;;;;5070763;28;20478;-70
2021/01/23 11:43:49;;;;;;;105.27;94.23;;;23.00;33.20;;;;;;5071070;28;20514;-71
2021/01/23 11:46:14;;;;;;;138.05;123.82;;;23.10;33.20;;;;;;5071005;28;20873;-70
2021/01/23 11:48:40;;;;;;;108.73;97.60;;;23.20;33.80;;;;;;5071020;28;20391;-71
2021/01/23 11:51:06;;;;;;;172.77;154.02;;;23.20;33.00;;;;;;5086543;28;20387;-72
2021/01/23 11:53:32;;;;;;;139.93;124.93;;;23.30;32.50;;;;;;5070391;28;20733;-71
2021/01/23 11:55:57;;;;;;;162.80;145.73;;;23.40;32.60;;;;;;5070450;28;20494;-71
2021/01/23 11:58:23;;;;;;;156.87;140.43;;;23.30;32.20;;;;;;5070618;28;20383;-66
2021/01/23 12:00:48;;;;;;;226.65;202.65;;;23.30;33.00;;;;;;5070640;28;20391;-72
2021/01/23 12:03:14;;;;;;;273.13;241.47;;;23.30;33.60;;;;;;5070871;28;20412;-68
2021/01/23 12:05:40;;;;;;;248.57;221.82;;;23.30;33.50;;;;;;5070920;28;20419;-72
2021/01/23 12:08:05;;;;;;;265.60;236.70;;;23.30;34.70;;;;;;5074812;28;20863;-72
2021/01/23 12:10:31;;;;;;;318.63;284.65;;;23.30;33.50;;;;;;5074532;28;20384;-72
2021/01/23 12:12:57;;;;;;;304.00;262.57;;;23.30;34.00;;;;;;5074568;28;20483;-72
2021/01/23 12:15:22;;;;;;;277.10;234.52;;;23.40;34.80;;;;;;5073843;28;20395;-70
2021/01/23 12:17:50;;;;;;;218.27;182.10;;;23.70;35.00;;;;;;5074280;28;20383;-72
2021/01/23 12:20:16;;;;;;;188.55;156.35;;;23.90;33.90;;;;;;5074468;28;20383;-72
2021/01/23 12:22:42;;;;;;;172.95;147.25;;;24.10;33.20;;;;;;5074339;28;20387;-71
2021/01/23 12:25:09;;;;;;;164.02;138.93;;;24.00;32.80;;;;;;5074434;28;20487;-70
2021/01/23 12:27:36;;;;;;;159.55;135.45;;;24.20;32.80;;;;;;5073828;28;20394;-72
2021/01/23 12:30:12;;;;;;;142.75;124.15;;;24.20;32.80;;;;;;5074029;28;20434;-71
2021/01/23 12:32:39;;;;;;;137.13;119.00;;;24.20;31.90;;;;;;5073575;28;20872;-69
2021/01/23 12:35:08;;;;;;;135.70;115.45;;;24.20;31.90;;;;;;5073743;28;20427;-62
2021/01/23 12:37:34;;;;;;;127.90;111.43;;;24.40;32.00;;;;;;5073478;28;20383;-65
2021/01/23 12:40:00;;;;;;;123.50;107.75;;;24.40;31.90;;;;;;5073930;28;20876;-69
2021/01/23 12:42:27;;;;;;;119.20;102.47;;;24.50;32.00;;;;;;5072776;28;20387;-67
2021/01/23 12:44:55;;;;;;;111.32;95.63;;;24.50;31.30;;;;;;5073925;28;20427;-68